Time;durP1;ratioP1;P1;durP2;ratioP2;P2;SDS_P1;SDS_P2;PMS_P1;PMS_P2;Temp;Humidity;BMP_temperature;BMP_pressure;BME280_temperature;BME280_humidity;BME280_pressure;Samples;Min_cycle;Max_cycle;Signal;HPM_P1;HPM_P2
2023/02/26 00:00:53;;;;;;;;;;;2.30;72.50;;;;;;5092545;28;19913;-36
2023/02/26 00:03:18;;;;;;;;;;;2.30;72.70;;;;;;5093037;28;19957;-27
2023/02/26 00:05:44;;;;;;;;;;;2.30;72.80;;;;;;5092687;28;20013;-32
2023/02/26 00:08:09;;;;;;;;;;;2.30;72.80;;;;;;5092580;28;19912;-31
2023/02/26 00:10:35;;;;;;;;;;;2.30;72.90;;;;;;5092464;28;19912;-28
2023/02/26 00:13:00;;;;;;;;;;;2.20;73.00;;;;;;5092569;28;19904;-30
2023/02/26 00:15:26;;;;;;;;;;;2.20;73.10;;;;;;5092458;28;19946;-33
2023/02/26 00:18:04;;;;;;;;;;;2.20;73.20;;;;;;5092561;28;19945;-32
2023/02/26 00:20:30;;;;;;;;;;;2.10;73.30;;;;;;5092166;28;20244;-27
2023/02/26 00:22:56;;;;;;;;;;;2.10;73.30;;;;;;5092242;28;19912;-31
2023/02/26 00:25:21;;;;;;;;;;;2.00;73.40;;;;;;5092399;28;20304;-29
2023/02/26 00:27:47;;;;;;;;;;;2.00;73.50;;;;;;5092143;28;19908;-32
2023/02/26 00:30:12;;;;;;;;;;;2.00;73.60;;;;;;5092161;28;20617;-38
2023/02/26 00:32:38;;;;;;;;;;;2.00;73.60;;;;;;5092012;28;19915;-31
2023/02/26 00:35:05;;;;;;;;;;;2.00;74.30;;;;;;5092134;28;20011;-34
2023/02/26 00:37:40;;;;;;;;;;;2.00;73.70;;;;;;5092375;28;19922;-28
2023/02/26 00:40:06;;;;;;;;;;;2.00;73.80;;;;;;5091801;28;19912;-29
2023/02/26 00:42:32;;;;;;;;;;;2.00;73.90;;;;;;5091858;28;19909;-32
2023/02/26 00:44:57;;;;;;;;;;;2.00;73.90;;;;;;5091798;28;19915;-31
2023/02/26 00:47:28;;;;;;;;;;;2.00;73.90;;;;;;5091890;28;19908;-33
2023/02/26 00:50:12;;;;;;;;;;;2.00;73.90;;;;;;5090450;28;19908;-32
2023/02/26 00:52:56;;;;;;;;;;;2.00;73.90;;;;;;5091760;28;19957;-31
2023/02/26 00:55:22;;;;;;;;;;;2.00;73.90;;;;;;5091890;28;20139;-28
2023/02/26 00:57:47;;;;;;;;;;;2.00;74.00;;;;;;5091711;28;19908;-29
2023/02/26 01:00:13;;;;;;;;;;;2.00;74.00;;;;;;5091725;28;19912;-34
2023/02/26 01:02:39;;;;;;;;;;;2.00;74.00;;;;;;5091535;28;19969;-29
2023/02/26 01:05:05;;;;;;;;;;;1.90;74.10;;;;;;5091639;28;19943;-33
2023/02/26 01:07:36;;;;;;;;;;;1.90;74.10;;;;;;5091195;28;19931;-29
2023/02/26 01:10:02;;;;;;;;;;;1.90;74.10;;;;;;5091538;28;20419;-29
2023/02/26 01:12:27;;;;;;;;;;;1.90;74.00;;;;;;5091569;28;20007;-29
2023/02/26 01:14:53;;;;;;;;;;;1.90;74.10;;;;;;5091562;28;19915;-28
2023/02/26 01:17:18;;;;;;;;;;;1.90;74.00;;;;;;5091418;28;19934;-29
2023/02/26 01:19:48;;;;;;;;;;;1.90;74.00;;;;;;5091250;28;20015;-29
2023/02/26 01:22:32;;;;;;;;;;;1.90;74.00;;;;;;5091405;28;19912;-29
2023/02/26 01:25:02;;;;;;;;;;;1.90;74.00;;;;;;5091337;28;19922;-31
2023/02/26 01:27:28;;;;;;;;;;;1.90;74.00;;;;;;5091645;28;20359;-30
2023/02/26 01:29:54;;;;;;;;;;;1.80;73.90;;;;;;5091421;28;20007;-32
2023/02/26 01:32:29;;;;;;;;;;;1.90;74.00;;;;;;5091226;28;19987;-36
2023/02/26 01:35:13;;;;;;;;;;;1.80;74.00;;;;;;5091263;28;20003;-29
2023/02/26 01:37:41;;;;;;;;;;;1.80;74.10;;;;;;5091153;28;19908;-33
2023/02/26 01:40:15;;;;;;;;;;;1.80;74.10;;;;;;5090879;28;19919;-38
2023/02/26 01:42:43;;;;;;;;;;;1.80;74.10;;;;;;5090989;28;19957;-30
2023/02/26 01:45:16;;;;;;;;;;;1.80;74.20;;;;;;5091097;28;19954;-46
2023/02/26 01:47:46;;;;;;;;;;;1.80;74.20;;;;;;5090279;28;19908;-33
2023/02/26 01:50:12;;;;;;;;;;;1.80;74.30;;;;;;5090702;28;19961;-44
2023/02/26 01:52:47;;;;;;;;;;;1.80;74.30;;;;;;5090154;28;19908;-43
2023/02/26 01:55:18;;;;;;;;;;;1.80;74.30;;;;;;5090529;28;19915;-32
2023/02/26 01:57:43;;;;;;;;;;;1.80;74.30;;;;;;5089986;28;19908;-51
2023/02/26 02:00:09;;;;;;;;;;;1.80;74.30;;;;;;5089671;28;19961;-29
2023/02/26 02:02:35;;;;;;;;;;;1.80;74.30;;;;;;5089889;28;19908;-36
2023/02/26 02:05:05;;;;;;;;;;;1.70;74.30;;;;;;5089947;28;19915;-29
2023/02/26 02:07:31;;;;;;;;;;;1.70;74.30;;;;;;5089775;28;19961;-29
2023/02/26 02:09:57;;;;;;;;;;;1.70;75.00;;;;;;5089709;28;19912;-29
2023/02/26 02:12:47;;;;;;;;;;;1.60;74.40;;;;;;5090022;28;19912;-30
2023/02/26 02:15:31;;;;;;;;;;;1.60;74.50;;;;;;5089997;28;20322;-33
2023/02/26 02:18:04;;;;;;;;;;;1.60;74.60;;;;;;5090660;28;19920;-29
2023/02/26 02:20:35;;;;;;;;;;;1.60;74.60;;;;;;5093512;28;20364;-28
2023/02/26 02:23:07;;;;;;;;;;;1.50;74.60;;;;;;5093772;28;19908;-35
2023/02/26 02:25:51;;;;;;;;;;;1.50;74.70;;;;;;5093751;28;19931;-29
2023/02/26 02:28:30;;;;;;;;;;;1.50;74.70;;;;;;5093479;28;19925;-30
2023/02/26 02:31:07;;;;;;;;;;;1.40;74.60;;;;;;5093822;28;19908;-31
2023/02/26 02:33:51;;;;;;;;;;;1.40;74.70;;;;;;5093587;28;20335;-31
2023/02/26 02:36:30;;;;;;;;;;;1.40;74.70;;;;;;5093603;28;20256;-30
2023/02/26 02:38:58;;;;;;;;;;;1.40;74.80;;;;;;5093543;28;20382;-37
2023/02/26 02:41:26;;;;;;;;;;;1.30;74.70;;;;;;5093485;28;19916;-30
2023/02/26 02:43:53;;;;;;;;;;;1.30;74.90;;;;;;5093477;28;19912;-28
2023/02/26 02:46:25;;;;;;;;;;;1.20;74.80;;;;;;5093302;28;20449;-29
2023/02/26 02:49:02;;;;;;;;;;;1.20;74.80;;;;;;5093543;28;20330;-33
2023/02/26 02:51:31;;;;;;;;;;;1.20;74.80;;;;;;5093498;28;19958;-32
2023/02/26 02:54:09;;;;;;;;;;;1.20;74.80;;;;;;5093394;28;19916;-31
2023/02/26 02:56:37;;;;;;;;;;;1.20;74.90;;;;;;5093346;28;20355;-33
2023/02/26 02:59:24;;;;;;;;;;;1.10;74.90;;;;;;5093918;28;20362;-30
2023/02/26 03:01:51;;;;;;;;;;;1.10;74.90;;;;;;5093970;28;20279;-28
2023/02/26 03:04:17;;;;;;;;;;;1.10;74.90;;;;;;5093580;28;19908;-31
2023/02/26 03:06:45;;;;;;;;;;;1.10;74.90;;;;;;5093837;28;19961;-32
2023/02/26 03:09:11;;;;;;;;;;;1.20;75.00;;;;;;5093450;28;20291;-36
2023/02/26 03:11:37;;;;;;;;;;;1.10;74.90;;;;;;5093703;28;19915;-29
2023/02/26 03:14:03;;;;;;;;;;;1.10;75.50;;;;;;5093543;28;19908;-35
2023/02/26 03:16:32;;;;;;;;;;;1.10;74.80;;;;;;5093307;28;19996;-33
2023/02/26 03:18:57;;;;;;;;;;;1.10;74.80;;;;;;5093271;28;19997;-30
2023/02/26 03:21:43;;;;;;;;;;;1.10;74.80;;;;;;5093423;28;19951;-32
2023/02/26 03:24:11;;;;;;;;;;;1.00;74.80;;;;;;5093176;28;20014;-29
2023/02/26 03:27:06;;;;;;;;;;;1.00;74.70;;;;;;5092879;28;19908;-31
2023/02/26 03:29:36;;;;;;;;;;;1.00;74.70;;;;;;5083592;28;20022;-29
2023/02/26 03:32:04;;;;;;;;;;;1.00;74.70;;;;;;5093041;28;19908;-29
2023/02/26 03:34:40;;;;;;;;;;;1.00;74.70;;;;;;5092890;28;19908;-29
2023/02/26 03:37:07;;;;;;;;;;;0.90;74.70;;;;;;5092899;28;19912;-31
2023/02/26 03:39:36;;;;;;;;;;;1.00;74.70;;;;;;5093072;28;20011;-29
2023/02/26 03:42:20;;;;;;;;;;;1.00;74.70;;;;;;5092915;28;19908;-46
2023/02/26 03:44:48;;;;;;;;;;;0.90;74.70;;;;;;5093044;28;20496;-45
2023/02/26 03:47:14;;;;;;;;;;;0.90;74.60;;;;;;5092803;28;20270;-34
2023/02/26 03:49:58;;;;;;;;;;;0.90;74.50;;;;;;5092666;28;19915;-34
2023/02/26 03:52:25;;;;;;;;;;;0.90;74.50;;;;;;5092643;28;19912;-35
2023/02/26 03:54:56;;;;;;;;;;;0.90;74.50;;;;;;5092676;28;19922;-34
2023/02/26 03:57:22;;;;;;;;;;;0.90;74.50;;;;;;5092848;28;20007;-35
2023/02/26 03:59:47;;;;;;;;;;;0.90;74.50;;;;;;5092416;28;20444;-36
2023/02/26 04:02:16;;;;;;;;;;;0.90;74.50;;;;;;5092859;28;20362;-34
2023/02/26 04:04:42;;;;;;;;;;;0.90;74.40;;;;;;5092582;28;20041;-35
2023/02/26 04:07:08;;;;;;;;;;;0.90;74.40;;;;;;5092439;28;19908;-34
2023/02/26 04:09:34;;;;;;;;;;;0.80;74.30;;;;;;5092431;28;20233;-32
2023/02/26 04:12:00;;;;;;;;;;;0.80;74.40;;;;;;5092482;28;20048;-35
2023/02/26 04:14:25;;;;;;;;;;;0.90;74.40;;;;;;5092475;28;19912;-32
2023/02/26 04:16:50;;;;;;;;;;;0.80;74.30;;;;;;5092251;28;19958;-35
2023/02/26 04:19:16;;;;;;;;;;;0.80;74.20;;;;;;5090617;28;19924;-34
2023/02/26 04:21:42;;;;;;;;;;;0.80;74.10;;;;;;5092140;28;19915;-35
2023/02/26 04:24:07;;;;;;;;;;;0.80;74.00;;;;;;5092251;28;19915;-32
2023/02/26 04:26:33;;;;;;;;;;;0.70;74.00;;;;;;5092072;28;19909;-35
2023/02/26 04:28:58;;;;;;;;;;;0.70;74.00;;;;;;5092042;28;19908;-34
2023/02/26 04:31:23;;;;;;;;;;;0.70;74.00;;;;;;5092086;28;19945;-35
2023/02/26 04:33:49;;;;;;;;;;;0.70;74.00;;;;;;5090781;28;19908;-35
2023/02/26 04:36:14;;;;;;;;;;;0.70;74.00;;;;;;5092108;28;20561;-40
2023/02/26 04:38:40;;;;;;;;;;;0.70;74.00;;;;;;5091806;28;19912;-34
2023/02/26 04:41:06;;;;;;;;;;;0.70;74.10;;;;;;5091100;28;19916;-33
2023/02/26 04:43:31;;;;;;;;;;;0.70;74.00;;;;;;5092511;28;19951;-35
2023/02/26 04:45:57;;;;;;;;;;;0.70;73.90;;;;;;5091953;28;19907;-35
2023/02/26 04:48:23;;;;;;;;;;;0.70;73.90;;;;;;5092160;28;20409;-35
2023/02/26 04:50:48;;;;;;;;;;;0.70;73.70;;;;;;5091769;28;19912;-35
2023/02/26 04:53:14;;;;;;;;;;;0.70;73.80;;;;;;5091973;28;19908;-35
2023/02/26 04:55:40;;;;;;;;;;;0.70;73.70;;;;;;5091749;28;19995;-35
2023/02/26 04:58:06;;;;;;;;;;;0.60;73.40;;;;;;5091984;28;19962;-36
2023/02/26 05:00:31;;;;;;;;;;;0.60;73.50;;;;;;5090139;28;19955;-35
2023/02/26 05:02:57;;;;;;;;;;;0.70;73.60;;;;;;5091757;28;19991;-35
2023/02/26 05:05:22;;;;;;;;;;;0.60;73.50;;;;;;5091558;28;19935;-35
2023/02/26 05:07:48;;;;;;;;;;;0.60;73.40;;;;;;5091482;28;20379;-34
2023/02/26 05:10:13;;;;;;;;;;;0.60;73.40;;;;;;5091676;28;19908;-40
2023/02/26 05:12:39;;;;;;;;;;;0.60;73.20;;;;;;5091344;28;19998;-40
2023/02/26 05:15:05;;;;;;;;;;;0.60;73.20;;;;;;5091664;28;19998;-37
2023/02/26 05:17:30;;;;;;;;;;;0.60;73.10;;;;;;5091220;28;19908;-35
2023/02/26 05:19:56;;;;;;;;;;;0.50;73.10;;;;;;5091103;28;19927;-33
2023/02/26 05:22:21;;;;;;;;;;;0.50;73.10;;;;;;5091122;28;19908;-34
2023/02/26 05:24:47;;;;;;;;;;;0.50;72.90;;;;;;5091291;28;19908;-34
2023/02/26 05:27:12;;;;;;;;;;;0.50;72.90;;;;;;5091182;28;20375;-35
2023/02/26 05:29:40;;;;;;;;;;;0.50;72.80;;;;;;5091066;28;19954;-32
2023/02/26 05:32:06;;;;;;;;;;;0.50;72.80;;;;;;5091132;28;19912;-33
2023/02/26 05:34:32;;;;;;;;;;;0.40;72.70;;;;;;5091068;28;19966;-35
2023/02/26 05:36:57;;;;;;;;;;;0.40;72.50;;;;;;5091084;28;19908;-34
2023/02/26 05:39:23;;;;;;;;;;;0.40;72.50;;;;;;5091029;28;20363;-40
2023/02/26 05:41:50;;;;;;;;;;;0.40;72.50;;;;;;5091246;28;19908;-34
2023/02/26 05:44:16;;;;;;;;;;;0.40;72.60;;;;;;5090998;28;19912;-34
2023/02/26 05:46:41;;;;;;;;;;;0.40;72.50;;;;;;5091244;28;19908;-35
2023/02/26 05:49:07;;;;;;;;;;;0.40;72.60;;;;;;5091093;28;19981;-31
2023/02/26 05:51:33;;;;;;;;;;;0.40;72.70;;;;;;5090994;28;20342;-36
2023/02/26 05:53:58;;;;;;;;;;;0.40;72.70;;;;;;5095116;28;19915;-32
2023/02/26 05:56:24;;;;;;;;;;;0.40;72.60;;;;;;5095086;28;19908;-34
2023/02/26 05:58:49;;;;;;;;;;;0.30;72.40;;;;;;5094968;28;20355;-33
2023/02/26 06:01:14;;;;;;;;;;;0.30;72.40;;;;;;5094989;28;19912;-36
2023/02/26 06:03:43;;;;;;;;;;;0.30;72.40;;;;;;5095193;28;20435;-35
2023/02/26 06:06:13;;;;;;;;;;;0.30;72.20;;;;;;5094975;28;20310;-36
2023/02/26 06:08:38;;;;;;;;;;;0.30;71.90;;;;;;5094782;28;19908;-33
2023/02/26 06:11:04;;;;;;;;;;;0.30;72.10;;;;;;5095237;28;20355;-42
2023/02/26 06:13:29;;;;;;;;;;;0.30;72.20;;;;;;5094853;28;19908;-33
2023/02/26 06:15:55;;;;;;;;;;;0.20;72.00;;;;;;5095178;28;20356;-36
2023/02/26 06:18:21;;;;;;;;;;;0.20;72.10;;;;;;5094990;28;19908;-33
2023/02/26 06:20:46;;;;;;;;;;;0.20;72.00;;;;;;5094512;28;19955;-35
2023/02/26 06:23:13;;;;;;;;;;;0.20;72.20;;;;;;5094583;28;19908;-36
2023/02/26 06:25:39;;;;;;;;;;;0.20;72.20;;;;;;5094670;28;19931;-35
2023/02/26 06:28:05;;;;;;;;;;;0.20;72.10;;;;;;5094452;28;19989;-36
2023/02/26 06:30:30;;;;;;;;;;;0.20;72.10;;;;;;5094503;28;19908;-36
2023/02/26 06:32:56;;;;;;;;;;;0.20;72.20;;;;;;5094397;28;19915;-41
2023/02/26 06:35:21;;;;;;;;;;;0.20;72.20;;;;;;5094992;28;19908;-36
2023/02/26 06:37:47;;;;;;;;;;;0.20;72.00;;;;;;5094755;28;19999;-34
2023/02/26 06:40:13;;;;;;;;;;;0.20;72.00;;;;;;5094392;28;19912;-36
2023/02/26 06:42:38;;;;;;;;;;;0.20;72.00;;;;;;5094179;28;20306;-35
2023/02/26 06:45:04;;;;;;;;;;;0.30;72.00;;;;;;5094392;28;19952;-37
2023/02/26 06:47:29;;;;;;;;;;;0.30;71.90;;;;;;5094118;28;19908;-35
2023/02/26 06:49:55;;;;;;;;;;;0.30;71.90;;;;;;5094312;28;20385;-36
2023/02/26 06:52:21;;;;;;;;;;;0.30;71.90;;;;;;5094674;28;19951;-36
2023/02/26 06:54:46;;;;;;;;;;;0.30;72.00;;;;;;5094324;28;19908;-34
2023/02/26 06:57:11;;;;;;;;;;;0.30;72.10;;;;;;5094175;28;19962;-35
2023/02/26 06:59:37;;;;;;;;;;;0.30;72.20;;;;;;5093624;28;19965;-35
2023/02/26 07:02:02;;;;;;;;;;;0.40;72.20;;;;;;5093885;28;19908;-35
2023/02/26 07:04:28;;;;;;;;;;;0.40;72.20;;;;;;5092914;28;19915;-39
2023/02/26 07:06:53;;;;;;;;;;;0.50;72.20;;;;;;5093951;28;20328;-35
2023/02/26 07:09:19;;;;;;;;;;;0.50;72.00;;;;;;5093454;28;20318;-32
2023/02/26 07:11:44;;;;;;;;;;;0.50;72.00;;;;;;5093967;28;19908;-37
2023/02/26 07:14:10;;;;;;;;;;;0.60;72.00;;;;;;5093779;28;19999;-39
2023/02/26 07:16:35;;;;;;;;;;;0.60;72.00;;;;;;5093844;28;19912;-37
2023/02/26 07:19:01;;;;;;;;;;;0.60;71.80;;;;;;5093373;28;20295;-35
2023/02/26 07:21:26;;;;;;;;;;;0.70;71.70;;;;;;5093476;28;19912;-34
2023/02/26 07:23:52;;;;;;;;;;;0.70;71.60;;;;;;5093808;28;19915;-35
2023/02/26 07:26:17;;;;;;;;;;;0.70;71.50;;;;;;5093453;28;19908;-43
2023/02/26 07:28:43;;;;;;;;;;;0.70;71.50;;;;;;5093277;28;19923;-35
2023/02/26 07:31:08;;;;;;;;;;;0.80;72.10;;;;;;5093180;28;20007;-33
2023/02/26 07:33:34;;;;;;;;;;;0.80;71.30;;;;;;5093123;28;19909;-35
2023/02/26 07:36:00;;;;;;;;;;;0.80;71.30;;;;;;5093217;28;20374;-35
2023/02/26 07:38:26;;;;;;;;;;;0.90;71.50;;;;;;5093521;28;19919;-36
2023/02/26 07:40:54;;;;;;;;;;;0.90;71.50;;;;;;5091837;28;19912;-36
2023/02/26 07:43:19;;;;;;;;;;;0.90;71.40;;;;;;5093911;28;19951;-32
2023/02/26 07:45:45;;;;;;;;;;;1.00;71.50;;;;;;5093312;28;19916;-36
2023/02/26 07:48:10;;;;;;;;;;;1.00;71.50;;;;;;5093350;28;19915;-36
2023/02/26 07:50:35;;;;;;;;;;;1.10;71.60;;;;;;5093184;28;20357;-36
2023/02/26 07:53:01;;;;;;;;;;;1.10;71.40;;;;;;5092881;28;19908;-35
2023/02/26 07:55:27;;;;;;;;;;;1.20;71.60;;;;;;5092886;28;19912;-34
2023/02/26 07:57:52;;;;;;;;;;;1.30;71.30;;;;;;5092849;28;19931;-35
2023/02/26 08:00:18;;;;;;;;;;;1.30;71.30;;;;;;5092653;28;19916;-36
2023/02/26 08:02:44;;;;;;;;;;;1.30;71.10;;;;;;5092779;28;20007;-35
2023/02/26 08:05:09;;;;;;;;;;;1.30;70.90;;;;;;5092525;28;19915;-36
2023/02/26 08:07:36;;;;;;;;;;;1.30;70.90;;;;;;5092736;28;19909;-35
2023/02/26 08:10:02;;;;;;;;;;;1.40;70.90;;;;;;5092984;28;20399;-36
2023/02/26 08:12:27;;;;;;;;;;;1.40;70.90;;;;;;5092551;28;19908;-35
2023/02/26 08:14:53;;;;;;;;;;;1.50;71.00;;;;;;5092688;28;19908;-37
2023/02/26 08:17:18;;;;;;;;;;;1.50;71.00;;;;;;5092435;28;19908;-36
2023/02/26 08:19:44;;;;;;;;;;;1.50;70.90;;;;;;5092221;28;20006;-36
2023/02/26 08:22:09;;;;;;;;;;;1.50;70.80;;;;;;5092498;28;19910;-36
2023/02/26 08:24:35;;;;;;;;;;;1.60;70.80;;;;;;5092239;28;20020;-38
2023/02/26 08:27:00;;;;;;;;;;;1.60;70.70;;;;;;5092453;28;19915;-35
2023/02/26 08:29:26;;;;;;;;;;;1.70;70.80;;;;;;5092305;28;19912;-37
2023/02/26 08:31:51;;;;;;;;;;;1.70;70.70;;;;;;5092419;28;19912;-35
2023/02/26 08:34:17;;;;;;;;;;;1.80;70.70;;;;;;5092289;28;19986;-40
2023/02/26 08:36:42;;;;;;;;;;;1.90;70.50;;;;;;5092236;28;19915;-35
2023/02/26 08:39:08;;;;;;;;;;;1.90;70.50;;;;;;5092313;28;19912;-36
2023/02/26 08:41:35;;;;;;;;;;;2.00;70.50;;;;;;5090492;28;19911;-36
2023/02/26 08:44:00;;;;;;;;;;;2.00;70.30;;;;;;5091840;28;19915;-34
2023/02/26 08:46:26;;;;;;;;;;;2.10;70.50;;;;;;5092069;28;19912;-37
2023/02/26 08:48:52;;;;;;;;;;;2.20;70.00;;;;;;5091920;28;19908;-35
2023/02/26 08:51:18;;;;;;;;;;;2.20;70.20;;;;;;5091980;28;20046;-35
2023/02/26 08:53:45;;;;;;;;;;;2.30;70.10;;;;;;5091737;28;19908;-36
2023/02/26 08:56:11;;;;;;;;;;;2.30;70.80;;;;;;5091886;28;19908;-35
2023/02/26 08:58:36;;;;;;;;;;;2.40;70.90;;;;;;5091723;28;19908;-36
2023/02/26 09:01:01;;;;;;;;;;;2.40;69.70;;;;;;5091759;28;19919;-35
2023/02/26 09:03:27;;;;;;;;;;;2.40;70.30;;;;;;5091974;28;19943;-34
2023/02/26 09:05:52;;;;;;;;;;;2.50;69.80;;;;;;5090401;28;19908;-35
2023/02/26 09:08:19;;;;;;;;;;;2.50;69.20;;;;;;5091644;28;20438;-36
2023/02/26 09:10:44;;;;;;;;;;;2.60;69.50;;;;;;5091718;28;19962;-36
2023/02/26 09:13:10;;;;;;;;;;;2.60;69.80;;;;;;5091678;28;19908;-35
2023/02/26 09:15:35;;;;;;;;;;;2.70;68.90;;;;;;5091521;28;19912;-38
2023/02/26 09:18:01;;;;;;;;;;;2.70;68.20;;;;;;5091586;28;19908;-35
2023/02/26 09:20:28;;;;;;;;;;;2.80;69.50;;;;;;5091376;28;20375;-36
2023/02/26 09:22:53;;;;;;;;;;;2.80;69.60;;;;;;5091648;28;20416;-36
2023/02/26 09:25:19;;;;;;;;;;;2.90;70.00;;;;;;5091661;28;20003;-36
2023/02/26 09:27:44;;;;;;;;;;;3.00;66.20;;;;;;5091054;28;19908;-36
2023/02/26 09:30:10;;;;;;;;;;;3.00;64.80;;;;;;5091459;28;19966;-35
2023/02/26 09:32:36;;;;;;;;;;;3.00;68.30;;;;;;5091575;28;20268;-36
2023/02/26 09:35:03;;;;;;;;;;;3.10;68.80;;;;;;5091655;28;19908;-35
2023/02/26 09:37:28;;;;;;;;;;;3.10;68.70;;;;;;5091574;28;19969;-33
2023/02/26 09:39:55;;;;;;;;;;;3.20;67.80;;;;;;5091414;28;19912;-36
2023/02/26 09:42:24;;;;;;;;;;;3.20;68.40;;;;;;5091706;28;19909;-35
2023/02/26 09:44:50;;;;;;;;;;;3.30;67.40;;;;;;5091427;28;19944;-42
2023/02/26 09:47:19;;;;;;;;;;;3.30;67.60;;;;;;5091479;28;20405;-36
2023/02/26 09:50:09;;;;;;;;;;;3.40;67.00;;;;;;5091045;28;19908;-36
2023/02/26 09:52:45;;;;;;;;;;;3.40;63.40;;;;;;5091174;28;19908;-36
2023/02/26 09:55:23;;;;;;;;;;;3.50;66.30;;;;;;5091392;28;20263;-35
2023/02/26 09:57:51;;;;;;;;;;;3.50;67.50;;;;;;5091257;28;20430;-35
2023/02/26 10:00:23;;;;;;;;;;;3.60;65.80;;;;;;5090956;28;19919;-36
2023/02/26 10:03:11;;;;;;;;;;;3.60;64.20;;;;;;5091114;28;19912;-36
2023/02/26 10:05:37;;;;;;;;;;;3.70;62.30;;;;;;5091178;28;19948;-38
2023/02/26 10:08:16;;;;;;;;;;;3.70;64.40;;;;;;5091113;28;19951;-35
2023/02/26 10:10:48;;;;;;;;;;;3.80;65.90;;;;;;5091197;28;19953;-39
2023/02/26 10:13:23;;;;;;;;;;;3.80;64.80;;;;;;5091432;28;20363;-40
2023/02/26 10:15:49;;;;;;;;;;;3.80;64.40;;;;;;5091077;28;19973;-42
2023/02/26 10:18:28;;;;;;;;;;;3.90;68.40;;;;;;5090730;28;19912;-36
2023/02/26 10:20:57;;;;;;;;;;;3.90;66.40;;;;;;5091252;28;20322;-34
2023/02/26 10:23:44;;;;;;;;;;;4.00;67.50;;;;;;5090797;28;19957;-35
2023/02/26 10:26:18;;;;;;;;;;;4.10;65.60;;;;;;5091123;28;20281;-33
2023/02/26 10:28:53;;;;;;;;;;;4.10;68.40;;;;;;5091141;28;19908;-35
2023/02/26 10:31:21;;;;;;;;;;;4.20;66.60;;;;;;5091123;28;20436;-34
2023/02/26 10:33:47;;;;;;;;;;;4.30;61.50;;;;;;5090805;28;20236;-36
2023/02/26 10:36:24;;;;;;;;;;;4.30;64.30;;;;;;5091091;28;19915;-35
2023/02/26 10:38:53;;;;;;;;;;;4.40;65.30;;;;;;5091437;28;20336;-34
2023/02/26 10:41:24;;;;;;;;;;;4.50;59.60;;;;;;5094525;28;19963;-35
2023/02/26 10:44:02;;;;;;;;;;;4.60;61.50;;;;;;5094346;28;19909;-34
2023/02/26 10:46:46;;;;;;;;;;;4.70;63.60;;;;;;5094371;28;20028;-37
2023/02/26 10:49:14;;;;;;;;;;;4.70;65.70;;;;;;5093012;28;20003;-32
2023/02/26 10:51:40;;;;;;;;;;;4.80;65.00;;;;;;5094366;28;19954;-35
2023/02/26 10:54:17;;;;;;;;;;;4.90;63.80;;;;;;5094580;28;19935;-36
2023/02/26 10:56:42;;;;;;;;;;;4.90;62.30;;;;;;5094315;28;19908;-35
2023/02/26 10:59:08;;;;;;;;;;;5.00;63.80;;;;;;5094257;28;19908;-36
2023/02/26 11:01:34;;;;;;;;;;;5.10;60.00;;;;;;5094129;28;19913;-34
2023/02/26 11:04:02;;;;;;;;;;;5.10;62.40;;;;;;5094085;28;19909;-41
2023/02/26 11:06:29;;;;;;;;;;;5.10;56.20;;;;;;5093960;28;19908;-36
2023/02/26 11:08:56;;;;;;;;;;;5.10;60.60;;;;;;5093949;28;19908;-36
2023/02/26 11:11:41;;;;;;;;;;;5.10;62.60;;;;;;5093987;28;19957;-35
2023/02/26 11:14:08;;;;;;;;;;;5.10;61.70;;;;;;5094091;28;19908;-37
2023/02/26 11:16:34;;;;;;;;;;;5.10;58.20;;;;;;5093962;28;19929;-35
2023/02/26 11:19:00;;;;;;;;;;;5.10;60.70;;;;;;5093970;28;19920;-34
2023/02/26 11:21:27;;;;;;;;;;;5.10;61.30;;;;;;5093824;28;20011;-36
2023/02/26 11:24:00;;;;;;;;;;;5.00;58.30;;;;;;5093833;28;19954;-35
2023/02/26 11:26:26;;;;;;;;;;;5.00;58.50;;;;;;5093714;28;19912;-35
2023/02/26 11:28:54;;;;;;;;;;;5.00;60.70;;;;;;5093654;28;19908;-36
2023/02/26 11:31:22;;;;;;;;;;;5.10;62.10;;;;;;5093951;28;19908;-36
2023/02/26 11:33:49;;;;;;;;;;;5.20;65.60;;;;;;5093430;28;20001;-36
2023/02/26 11:36:16;;;;;;;;;;;5.30;63.80;;;;;;5093448;28;19915;-35
2023/02/26 11:39:00;;;;;;;;;;;5.30;62.30;;;;;;5093820;28;20311;-35
2023/02/26 11:41:26;;;;;;;;;;;5.50;61.50;;;;;;5093251;28;19939;-38
2023/02/26 11:44:03;;;;;;;;;;;5.60;62.90;;;;;;5093386;28;19915;-33
2023/02/26 11:46:29;;;;;;;;;;;5.70;61.90;;;;;;5093118;28;20022;-39
2023/02/26 11:48:56;;;;;;;;;;;5.80;63.30;;;;;;5093246;28;19939;-36
2023/02/26 11:51:24;;;;;;;;;;;5.80;65.80;;;;;;5093356;28;19917;-38
2023/02/26 11:53:54;;;;;;;;;;;5.90;67.40;;;;;;5093524;28;19912;-33
2023/02/26 11:56:29;;;;;;;;;;;5.90;62.60;;;;;;5093431;28;20288;-36
2023/02/26 11:58:56;;;;;;;;;;;5.90;60.40;;;;;;5092997;28;19912;-36
2023/02/26 12:01:26;;;;;;;;;;;5.90;61.00;;;;;;5093123;28;19912;-35
2023/02/26 12:03:52;;;;;;;;;;;6.00;58.90;;;;;;5093367;28;19931;-35
2023/02/26 12:06:18;;;;;;;;;;;6.00;61.60;;;;;;5093280;28;19908;-37
2023/02/26 12:08:44;;;;;;;;;;;6.10;61.50;;;;;;5093034;28;19908;-37
2023/02/26 12:11:10;;;;;;;;;;;6.20;61.60;;;;;;5093381;28;19915;-35
2023/02/26 12:13:41;;;;;;;;;;;6.40;60.50;;;;;;5092817;28;20007;-36
2023/02/26 12:16:07;;;;;;;;;;;6.40;61.60;;;;;;5092917;28;19908;-35
2023/02/26 12:18:53;;;;;;;;;;;6.50;58.70;;;;;;5092827;28;19954;-33
2023/02/26 12:21:37;;;;;;;;;;;6.50;59.70;;;;;;5092795;28;19962;-36
2023/02/26 12:24:11;;;;;;;;;;;6.50;57.20;;;;;;5092840;28;19908;-35
2023/02/26 12:26:43;;;;;;;;;;;6.40;55.80;;;;;;5092693;28;19908;-37
2023/02/26 12:29:20;;;;;;;;;;;6.40;55.90;;;;;;5092545;28;19908;-35
2023/02/26 12:32:04;;;;;;;;;;;6.30;54.90;;;;;;5092408;28;19912;-38
2023/02/26 12:34:35;;;;;;;;;;;6.20;55.10;;;;;;5092625;28;20220;-43
2023/02/26 12:37:01;;;;;;;;;;;6.10;56.00;;;;;;5092585;28;20472;-35
2023/02/26 12:40:05;;;;;;;;;;;6.20;56.40;;;;;;5092238;28;19913;-36
2023/02/26 12:42:50;;;;;;;;;;;6.20;56.80;;;;;;5049338;28;20101;-35
2023/02/26 12:45:34;;;;;;;;;;;6.40;55.30;;;;;;5049318;28;19924;-35
2023/02/26 12:48:14;;;;;;;;;;;6.40;55.30;;;;;;5080149;28;20376;-35
2023/02/26 12:50:58;;;;;;;;;;;6.50;55.70;;;;;;5092025;28;19908;-36
2023/02/26 12:53:43;;;;;;;;;;;6.50;54.40;;;;;;5091943;28;19908;-34
2023/02/26 12:56:09;;;;;;;;;;;6.50;54.20;;;;;;5084270;28;19911;-35
2023/02/26 12:58:57;;;;;;;;;;;6.60;52.90;;;;;;5091729;28;19908;-34
2023/02/26 13:01:41;;;;;;;;;;;6.50;52.90;;;;;;5091348;28;19912;-35
2023/02/26 13:04:06;;;;;;;;;;;6.60;52.30;;;;;;5092001;28;20010;-37
2023/02/26 13:06:52;;;;;;;;;;;6.60;53.70;;;;;;5091648;28;20003;-33
2023/02/26 13:09:33;;;;;;;;;;;6.70;54.50;;;;;;5091949;28;20378;-37
2023/02/26 13:12:16;;;;;;;;;;;6.80;55.10;;;;;;5091805;28;19969;-38
2023/02/26 13:14:50;;;;;;;;;;;6.90;52.60;;;;;;5091779;28;19908;-35
2023/02/26 13:17:23;;;;;;;;;;;7.00;55.10;;;;;;5092026;28;19908;-36
2023/02/26 13:19:54;;;;;;;;;;;7.10;54.20;;;;;;5091524;28;20019;-39
2023/02/26 13:22:39;;;;;;;;;;;7.20;54.80;;;;;;5091177;28;20507;-42
2023/02/26 13:25:17;;;;;;;;;;;7.20;53.60;;;;;;5091569;28;19908;-44
2023/02/26 13:27:43;;;;;;;;;;;7.20;51.40;;;;;;5091617;28;20004;-36
2023/02/26 13:30:21;;;;;;;;;;;7.10;52.40;;;;;;5091454;28;19908;-42
2023/02/26 13:32:47;;;;;;;;;;;7.10;50.60;;;;;;5091688;28;20420;-36
2023/02/26 13:35:13;;;;;;;;;;;7.00;50.80;;;;;;5091383;28;20006;-35
2023/02/26 13:37:41;;;;;;;;;;;7.00;50.40;;;;;;5091748;28;19943;-38
2023/02/26 13:40:25;;;;;;;;;;;7.00;52.10;;;;;;5091538;28;19922;-35
2023/02/26 13:43:07;;;;;;;;;;;7.10;50.40;;;;;;5091615;28;19913;-35
2023/02/26 13:45:35;;;;;;;;;;;7.10;50.10;;;;;;5091297;28;19939;-40
2023/02/26 13:48:07;;;;;;;;;;;7.10;49.70;;;;;;5089985;28;20387;-36
2023/02/26 13:50:42;;;;;;;;;;;7.10;51.00;;;;;;5091412;28;19908;-41
2023/02/26 13:53:22;;;;;;;;;;;7.10;49.50;;;;;;5091328;28;19947;-39
2023/02/26 13:55:48;;;;;;;;;;;7.10;50.10;;;;;;5091300;28;19923;-36
2023/02/26 13:58:22;;;;;;;;;;;7.10;50.30;;;;;;5091211;28;20310;-34
2023/02/26 14:01:06;;;;;;;;;;;7.10;51.00;;;;;;5091140;28;19977;-36
2023/02/26 14:03:33;;;;;;;;;;;7.20;51.40;;;;;;5091591;28;19908;-36
2023/02/26 14:06:08;;;;;;;;;;;7.30;51.40;;;;;;5091244;28;20359;-36
2023/02/26 14:08:38;;;;;;;;;;;7.40;50.10;;;;;;5091123;28;19956;-36
2023/02/26 14:11:21;;;;;;;;;;;7.40;48.50;;;;;;5091401;28;19908;-36
2023/02/26 14:14:05;;;;;;;;;;;7.40;49.80;;;;;;5093622;28;19912;-46
2023/02/26 14:16:32;;;;;;;;;;;7.40;49.00;;;;;;5095048;28;20303;-37
2023/02/26 14:19:05;;;;;;;;;;;7.50;50.00;;;;;;5094748;28;19927;-35
2023/02/26 14:21:50;;;;;;;;;;;7.50;49.30;;;;;;5093457;28;19916;-36
2023/02/26 14:24:18;;;;;;;;;;;7.50;48.30;;;;;;5094996;28;19916;-34
2023/02/26 14:26:46;;;;;;;;;;;7.50;49.30;;;;;;5094945;28;20299;-40
2023/02/26 14:29:15;;;;;;;;;;;7.50;49.10;;;;;;5094734;28;19912;-32
2023/02/26 14:31:56;;;;;;;;;;;7.50;49.20;;;;;;5093282;28;20411;-35
2023/02/26 14:34:21;;;;;;;;;;;7.50;50.40;;;;;;5095000;28;20367;-35
2023/02/26 14:37:01;;;;;;;;;;;7.60;49.40;;;;;;5094685;28;19920;-35
2023/02/26 14:39:39;;;;;;;;;;;7.50;48.90;;;;;;5094325;28;19916;-35
2023/02/26 14:42:06;;;;;;;;;;;7.50;48.50;;;;;;5094449;28;20332;-40
2023/02/26 14:44:35;;;;;;;;;;;7.50;49.20;;;;;;5094428;28;19912;-33